Time;durP1;ratioP1;P1;durP2;ratioP2;P2;SDS_P1;SDS_P2;PMS_P1;PMS_P2;Temp;Humidity;BMP_temperature;BMP_pressure;BME280_temperature;BME280_humidity;BME280_pressure;Samples;Min_cycle;Max_cycle;Signal;HPM_P1;HPM_P2
2022/01/14 00:01:06;;;;;;;21.33;9.07;;;6.30;78.60;;;;;;4970509;28;20039;-47
2022/01/14 00:03:33;;;;;;;24.67;9.90;;;6.20;78.40;;;;;;4986707;28;20101;-46
2022/01/14 00:06:00;;;;;;;28.90;8.90;;;6.20;78.40;;;;;;4988060;28;20117;-45
2022/01/14 00:08:28;;;;;;;23.48;8.20;;;6.20;78.40;;;;;;4980996;28;20137;-45
2022/01/14 00:10:57;;;;;;;26.60;9.63;;;6.20;78.40;;;;;;4968633;28;20055;-46
2022/01/14 00:13:46;;;;;;;22.90;8.38;;;6.20;78.40;;;;;;4982302;28;20042;-48
2022/01/14 00:16:13;;;;;;;22.25;8.18;;;6.20;78.30;;;;;;4981921;28;20046;-48
2022/01/14 00:18:42;;;;;;;15.55;8.13;;;6.20;78.10;;;;;;4977337;28;20505;-46
2022/01/14 00:21:09;;;;;;;22.63;7.60;;;6.10;78.00;;;;;;4986789;28;20498;-46
2022/01/14 00:23:39;;;;;;;13.82;7.68;;;6.10;77.90;;;;;;4984423;28;20075;-47
2022/01/14 00:31:47;;;;;;;17.65;8.65;;;6.00;77.80;;;;;;4975978;28;20049;-50
2022/01/14 00:34:15;;;;;;;13.23;8.05;;;6.00;77.80;;;;;;4982576;28;20046;-46
2022/01/14 00:36:42;;;;;;;23.15;8.38;;;5.90;77.90;;;;;;4981924;28;20046;-49
2022/01/14 00:39:10;;;;;;;28.20;8.90;;;5.90;78.00;;;;;;4976448;28;20070;-48
2022/01/14 00:41:39;;;;;;;25.40;11.10;;;5.90;78.00;;;;;;4983839;28;20108;-49
2022/01/14 00:44:10;;;;;;;36.00;11.10;;;5.90;78.00;;;;;;4985841;28;20046;-45
2022/01/14 00:46:39;;;;;;;61.08;11.05;;;5.90;77.90;;;;;;4993609;28;20570;-45
2022/01/14 00:49:06;;;;;;;31.27;8.93;;;5.80;77.80;;;;;;4975232;28;20046;-47
2022/01/14 00:51:35;;;;;;;46.97;10.95;;;5.80;77.90;;;;;;4982707;28;20051;-49
2022/01/14 00:54:03;;;;;;;24.38;9.05;;;5.80;78.10;;;;;;4973799;28;20478;-49
2022/01/14 00:56:34;;;;;;;39.35;9.20;;;5.80;78.20;;;;;;4970496;28;20577;-46
2022/01/14 00:59:16;;;;;;;40.47;9.15;;;5.70;78.20;;;;;;4983773;28;20050;-46
2022/01/14 01:01:55;;;;;;;47.60;10.68;;;5.70;78.20;;;;;;4974302;28;20046;-47
2022/01/14 01:04:30;;;;;;;23.15;7.63;;;5.70;78.10;;;;;;4967350;28;20089;-44
2022/01/14 01:07:01;;;;;;;37.05;8.65;;;5.70;78.10;;;;;;4981434;28;20125;-48
2022/01/14 01:09:30;;;;;;;24.55;8.18;;;5.70;78.30;;;;;;4972980;28;20072;-45
2022/01/14 01:12:14;;;;;;;33.72;9.00;;;5.70;78.20;;;;;;4982205;28;20046;-45
2022/01/14 01:15:03;;;;;;;27.92;8.32;;;5.70;78.10;;;;;;4991065;28;20046;-46
2022/01/14 01:17:30;;;;;;;20.50;6.88;;;5.70;78.10;;;;;;4977302;28;20046;-49
2022/01/14 01:19:56;;;;;;;25.70;7.45;;;5.70;78.10;;;;;;4983672;28;20035;-46
2022/01/14 01:22:23;;;;;;;10.88;7.18;;;5.70;77.90;;;;;;4991531;28;20050;-49
2022/01/14 01:25:05;;;;;;;18.23;7.65;;;5.60;77.80;;;;;;4985288;28;20425;-45
2022/01/14 01:27:37;;;;;;;19.45;7.43;;;5.60;77.80;;;;;;4966021;28;20051;-47
2022/01/14 01:30:37;;;;;;;43.08;10.02;;;5.60;77.70;;;;;;4977614;28;20054;-45
2022/01/14 01:33:06;;;;;;;19.13;7.22;;;5.60;77.70;;;;;;4977666;28;20125;-49
2022/01/14 01:35:34;;;;;;;31.85;8.45;;;5.60;77.80;;;;;;4970623;28;20047;-49
2022/01/14 01:38:01;;;;;;;27.20;7.00;;;5.60;77.70;;;;;;4980942;28;20038;-46
2022/01/14 01:40:28;;;;;;;26.05;6.55;;;5.60;77.70;;;;;;4985287;28;20406;-47
2022/01/14 01:42:59;;;;;;;31.20;8.40;;;5.60;77.80;;;;;;4972832;28;20105;-47
2022/01/14 01:45:26;;;;;;;20.15;6.32;;;5.50;77.70;;;;;;4971946;28;20042;-48
2022/01/14 01:47:54;;;;;;;30.35;7.90;;;5.50;77.80;;;;;;4982643;28;20085;-49
2022/01/14 01:50:25;;;;;;;14.32;6.90;;;5.50;77.80;;;;;;4992045;28;20535;-45
2022/01/14 01:52:53;;;;;;;29.90;7.70;;;5.50;77.90;;;;;;4977709;28;20047;-45
2022/01/14 01:55:21;;;;;;;34.38;8.02;;;5.50;78.00;;;;;;4984375;28;20093;-48
2022/01/14 01:57:49;;;;;;;28.83;7.50;;;5.50;77.80;;;;;;4989916;28;20046;-45
2022/01/14 02:00:18;;;;;;;24.88;6.72;;;5.50;77.70;;;;;;4990124;28;20050;-49
2022/01/14 02:02:48;;;;;;;25.88;7.18;;;5.50;77.60;;;;;;4975425;28;20046;-45
2022/01/14 02:05:16;;;;;;;29.90;7.80;;;5.50;77.60;;;;;;4978560;28;20038;-45
2022/01/14 02:07:44;;;;;;;25.85;7.57;;;5.50;77.60;;;;;;4990905;28;20089;-45
2022/01/14 02:10:11;;;;;;;30.33;7.93;;;5.50;77.60;;;;;;4971843;28;20423;-48
2022/01/14 02:12:46;;;;;;;19.60;6.82;;;5.50;77.60;;;;;;4967336;28;20039;-51
2022/01/14 02:23:17;;;;;;;14.88;7.28;;;5.50;77.90;;;;;;4972290;28;20078;-48
2022/01/14 02:25:45;;;;;;;17.83;8.13;;;5.50;77.70;;;;;;4980770;28;20050;-47
2022/01/14 02:28:14;;;;;;;17.98;8.35;;;5.50;77.80;;;;;;4991242;28;20054;-47
2022/01/14 02:30:42;;;;;;;15.40;7.13;;;5.40;77.80;;;;;;4975840;28;20061;-44
2022/01/14 02:33:10;;;;;;;29.48;8.68;;;5.40;77.80;;;;;;4983104;28;20046;-47
2022/01/14 02:35:39;;;;;;;24.77;8.25;;;5.40;77.70;;;;;;4975494;28;20051;-45
2022/01/14 02:38:08;;;;;;;16.58;7.18;;;5.40;77.70;;;;;;4969709;28;20090;-45
2022/01/14 02:40:38;;;;;;;21.92;8.60;;;5.40;77.80;;;;;;4966431;28;20042;-45
2022/01/14 02:43:13;;;;;;;18.85;8.02;;;5.40;77.90;;;;;;4976224;28;20034;-46
2022/01/14 02:45:41;;;;;;;14.95;8.05;;;5.50;78.00;;;;;;4982950;28;20047;-45
2022/01/14 02:48:08;;;;;;;17.70;8.55;;;5.40;77.90;;;;;;4990283;28;20101;-45
2022/01/14 02:50:41;;;;;;;20.67;8.38;;;5.40;77.80;;;;;;4974887;28;20047;-46
2022/01/14 02:56:00;;;;;;;17.88;7.50;;;5.50;77.80;;;;;;4989890;28;20502;-49
2022/01/14 02:58:30;;;;;;;18.48;7.45;;;5.40;77.70;;;;;;4981647;28;20101;-49
2022/01/14 03:01:07;;;;;;;19.33;8.10;;;5.50;77.70;;;;;;4975451;28;20080;-49
2022/01/14 03:03:34;;;;;;;18.50;8.82;;;5.40;77.60;;;;;;4983034;28;20048;-46
2022/01/14 03:06:03;;;;;;;22.45;9.70;;;5.40;77.60;;;;;;4984678;28;20038;-47
2022/01/14 03:08:32;;;;;;;30.70;9.25;;;5.40;77.70;;;;;;4970688;28;20094;-45
2022/01/14 03:11:21;;;;;;;30.75;10.48;;;5.40;77.70;;;;;;4974077;28;20553;-48
2022/01/14 03:13:47;;;;;;;30.70;10.68;;;5.40;77.70;;;;;;4956506;28;20059;-45
2022/01/14 03:16:18;;;;;;;32.45;10.73;;;5.40;77.70;;;;;;4957586;28;20094;-48
2022/01/14 03:18:49;;;;;;;27.13;10.13;;;5.40;77.70;;;;;;4960231;28;20070;-49
2022/01/14 03:21:24;;;;;;;27.67;11.30;;;5.40;77.70;;;;;;4982780;28;20491;-47
2022/01/14 03:24:02;;;;;;;33.72;11.77;;;5.40;77.80;;;;;;4980848;28;20043;-49
2022/01/14 03:26:29;;;;;;;22.05;11.35;;;5.40;77.80;;;;;;4966712;28;20045;-46
2022/01/14 03:28:56;;;;;;;30.05;12.80;;;5.40;77.80;;;;;;4974233;28;20094;-45
2022/01/14 03:31:23;;;;;;;29.95;13.15;;;5.40;78.00;;;;;;4982640;28;20049;-48
2022/01/14 03:33:50;;;;;;;36.05;12.73;;;5.40;78.00;;;;;;4989693;28;20054;-48
2022/01/14 03:36:16;;;;;;;29.63;13.80;;;5.40;78.10;;;;;;4968561;28;20074;-48
2022/01/14 03:38:43;;;;;;;35.92;13.77;;;5.40;78.20;;;;;;4974699;28;20074;-49
2022/01/14 03:41:10;;;;;;;33.33;14.57;;;5.40;78.20;;;;;;4982560;28;20120;-50
2022/01/14 03:43:38;;;;;;;38.95;15.82;;;5.40;78.30;;;;;;4990575;28;20042;-49
2022/01/14 03:46:05;;;;;;;36.03;14.85;;;5.50;78.40;;;;;;4978834;28;20030;-47
2022/01/14 03:48:32;;;;;;;35.83;13.80;;;5.50;78.30;;;;;;4980903;28;20262;-50
2022/01/14 03:50:59;;;;;;;26.48;14.82;;;5.50;78.30;;;;;;4982138;28;20046;-50
2022/01/14 03:53:28;;;;;;;41.90;14.50;;;5.50;78.30;;;;;;4990494;28;20057;-47
2022/01/14 03:55:54;;;;;;;31.45;13.20;;;5.50;78.30;;;;;;4969687;28;20547;-49
2022/01/14 03:58:38;;;;;;;32.25;14.02;;;5.50;78.20;;;;;;4979769;28;20049;-46
2022/01/14 04:01:06;;;;;;;38.70;15.23;;;5.50;78.20;;;;;;4978146;28;20042;-45
2022/01/14 04:03:34;;;;;;;37.15;15.27;;;5.50;78.20;;;;;;4997093;28;20109;-47
2022/01/14 04:06:00;;;;;;;50.33;13.55;;;5.50;78.80;;;;;;4979729;28;20038;-48
2022/01/14 04:08:27;;;;;;;36.28;14.38;;;5.50;78.20;;;;;;4987305;28;20070;-45
2022/01/14 04:10:57;;;;;;;36.45;13.90;;;5.50;78.10;;;;;;4980093;28;20126;-45
2022/01/14 04:13:37;;;;;;;47.40;15.18;;;5.50;78.10;;;;;;4963153;28;20047;-47
2022/01/14 04:16:04;;;;;;;37.28;14.18;;;5.50;78.00;;;;;;4973535;28;20453;-48
2022/01/14 04:18:31;;;;;;;48.67;14.80;;;5.50;77.90;;;;;;4970290;28;20049;-45
2022/01/14 04:20:58;;;;;;;44.25;15.13;;;5.50;77.90;;;;;;4965182;28;20034;-45
2022/01/14 04:23:24;;;;;;;41.25;16.15;;;5.50;77.80;;;;;;4969007;28;20047;-46
2022/01/14 04:25:53;;;;;;;39.92;14.40;;;5.50;77.90;;;;;;4976403;28;20114;-45
2022/01/14 04:28:22;;;;;;;53.38;15.88;;;5.50;77.90;;;;;;4967457;28;20478;-45
2022/01/14 04:30:54;;;;;;;36.97;15.15;;;5.50;78.00;;;;;;4969139;28;20105;-48
2022/01/14 04:33:23;;;;;;;29.55;13.55;;;5.50;77.90;;;;;;4964202;28;20059;-45
2022/01/14 04:35:50;;;;;;;33.13;14.48;;;5.40;77.90;;;;;;4980876;28;20050;-45
2022/01/14 04:38:17;;;;;;;34.55;13.10;;;5.40;78.00;;;;;;4986727;28;20453;-46
2022/01/14 04:40:44;;;;;;;42.00;14.88;;;5.40;78.00;;;;;;4991133;22;20102;-75
2022/01/14 04:43:13;;;;;;;33.65;14.95;;;5.40;78.10;;;;;;4973364;28;20494;-76
2022/01/14 04:45:43;;;;;;;34.42;14.35;;;5.40;78.10;;;;;;4973223;28;20121;-76
2022/01/14 04:48:11;;;;;;;35.50;15.52;;;5.40;78.10;;;;;;4969363;28;20089;-76
2022/01/14 04:50:38;;;;;;;36.70;15.45;;;5.40;78.10;;;;;;4962843;28;20047;-76
2022/01/14 04:53:09;;;;;;;34.55;15.90;;;5.40;78.10;;;;;;4972275;28;20400;-76
2022/01/14 04:55:36;;;;;;;56.10;17.63;;;5.50;78.20;;;;;;4980089;28;20462;-76
2022/01/14 04:58:03;;;;;;;73.82;16.70;;;5.50;78.10;;;;;;4971463;28;20552;-76
2022/01/14 05:00:31;;;;;;;66.68;17.23;;;5.50;78.10;;;;;;4967304;28;20051;-76
2022/01/14 05:02:58;;;;;;;63.42;17.77;;;5.60;78.20;;;;;;4971968;28;20082;-76
2022/01/14 05:05:28;;;;;;;50.20;15.95;;;5.50;78.10;;;;;;4971417;28;20043;-76
2022/01/14 05:07:56;;;;;;;97.88;18.00;;;5.50;78.00;;;;;;4979094;28;20057;-76
2022/01/14 05:12:56;;;;;;;85.60;20.20;;;5.50;78.10;;;;;;4973252;28;20522;-76
2022/01/14 05:15:23;;;;;;;44.17;14.93;;;5.50;78.00;;;;;;4971151;28;20050;-76
2022/01/14 05:17:50;;;;;;;55.60;15.73;;;5.50;78.10;;;;;;4972339;28;20051;-76
2022/01/14 05:20:18;;;;;;;102.38;19.15;;;5.50;78.20;;;;;;4963806;28;20043;-76
2022/01/14 05:22:46;;;;;;;90.85;17.15;;;5.50;78.20;;;;;;4974808;28;20040;-76
2022/01/14 05:25:14;;;;;;;63.33;15.57;;;5.40;78.00;;;;;;4971614;28;20196;-76
2022/01/14 05:27:42;;;;;;;74.00;14.43;;;5.50;78.20;;;;;;4963343;28;20076;-76
2022/01/14 05:30:11;;;;;;;71.63;15.98;;;5.40;78.10;;;;;;4968392;28;20422;-76
2022/01/14 05:32:46;;;;;;;63.83;17.33;;;5.40;78.10;;;;;;4963797;28;20042;-75
2022/01/14 05:35:15;;;;;;;69.05;16.90;;;5.40;78.10;;;;;;4966386;28;20065;-75
2022/01/14 05:37:42;;;;;;;68.07;15.98;;;5.40;78.00;;;;;;4958225;28;20038;-75
2022/01/14 05:40:10;;;;;;;62.35;16.63;;;5.40;78.00;;;;;;4961612;28;20218;-76
2022/01/14 05:42:37;;;;;;;49.08;15.15;;;5.40;78.00;;;;;;4973740;28;20045;-75
2022/01/14 05:45:06;;;;;;;39.17;14.45;;;5.30;78.00;;;;;;4967238;28;20049;-75
2022/01/14 05:47:34;;;;;;;49.63;16.10;;;5.30;78.00;;;;;;4962690;28;20035;-75
2022/01/14 05:50:05;;;;;;;52.63;16.38;;;5.30;78.10;;;;;;4966456;28;20511;-76
2022/01/14 05:52:32;;;;;;;35.17;16.30;;;5.30;78.10;;;;;;4955255;28;20053;-76
2022/01/14 05:54:59;;;;;;;27.13;15.93;;;5.30;78.10;;;;;;4957119;28;20165;-75
2022/01/14 05:57:26;;;;;;;31.75;14.52;;;5.30;78.10;;;;;;4959024;28;20055;-76
2022/01/14 05:59:52;;;;;;;37.13;13.15;;;5.30;78.10;;;;;;4958602;28;20039;-76
2022/01/14 06:02:19;;;;;;;36.67;13.07;;;5.30;78.10;;;;;;4957460;28;20138;-75
2022/01/14 06:04:46;;;;;;;36.17;12.55;;;5.20;77.90;;;;;;4951226;28;20047;-75
2022/01/14 06:07:14;;;;;;;45.03;12.77;;;5.30;78.00;;;;;;4959223;28;20466;-76
2022/01/14 06:09:41;;;;;;;37.55;11.88;;;5.20;78.00;;;;;;4961802;28;20047;-75
2022/01/14 06:12:08;;;;;;;43.35;12.77;;;5.20;78.10;;;;;;4987178;28;20053;-75
2022/01/14 06:14:38;;;;;;;52.65;12.43;;;5.20;78.30;;;;;;4972712;28;20038;-75
2022/01/14 06:17:05;;;;;;;41.92;13.20;;;5.20;78.50;;;;;;4963921;28;20432;-76
2022/01/14 06:19:32;;;;;;;50.22;13.20;;;5.20;78.70;;;;;;4916375;28;20047;-76
2022/01/14 06:21:59;;;;;;;60.53;13.80;;;5.20;78.80;;;;;;4945759;28;20042;-76
2022/01/14 06:24:26;;;;;;;45.03;13.48;;;5.20;79.00;;;;;;4957310;28;20435;-76
2022/01/14 06:26:53;;;;;;;43.90;13.82;;;5.20;79.10;;;;;;4961074;28;20046;-76
2022/01/14 06:29:20;;;;;;;65.35;15.65;;;5.30;79.10;;;;;;4959268;28;20051;-76
2022/01/14 06:31:46;;;;;;;51.63;14.20;;;5.30;79.70;;;;;;4965106;28;20061;-76
2022/01/14 06:34:14;;;;;;;74.43;15.13;;;5.30;79.10;;;;;;4949659;28;20062;-76
2022/01/14 06:36:42;;;;;;;59.67;15.10;;;5.30;79.10;;;;;;4962578;28;20065;-77
2022/01/14 06:39:10;;;;;;;49.55;13.88;;;5.30;79.60;;;;;;4954342;28;20043;-77
2022/01/14 06:41:37;;;;;;;74.82;15.20;;;5.40;78.90;;;;;;4960404;28;20525;-77
2022/01/14 06:44:05;;;;;;;51.95;15.18;;;5.30;78.80;;;;;;4947769;28;20055;-77
2022/01/14 06:46:33;;;;;;;52.00;15.52;;;5.30;78.80;;;;;;4952926;28;20051;-77
2022/01/14 06:48:59;;;;;;;60.80;14.50;;;5.40;78.90;;;;;;4966419;28;20054;-77
2022/01/14 06:51:26;;;;;;;54.58;14.98;;;5.40;79.10;;;;;;4957569;28;20059;-78
2022/01/14 06:53:53;;;;;;;56.78;13.45;;;5.40;79.10;;;;;;4940891;28;20046;-78
2022/01/14 06:56:20;;;;;;;55.30;15.70;;;5.50;79.20;;;;;;4953185;28;20425;-77
2022/01/14 06:58:47;;;;;;;51.53;15.10;;;5.40;79.20;;;;;;4961014;28;20051;-78
2022/01/14 07:01:14;;;;;;;46.72;15.13;;;5.40;79.20;;;;;;4945819;28;20035;-76
2022/01/14 07:03:41;;;;;;;60.78;14.82;;;5.40;79.30;;;;;;4959776;28;20051;-76
2022/01/14 07:06:08;;;;;;;47.67;13.82;;;5.40;79.30;;;;;;4952637;28;20045;-76
2022/01/14 07:08:35;;;;;;;42.55;13.90;;;5.40;79.20;;;;;;4968543;28;20053;-76
2022/01/14 07:11:03;;;;;;;45.58;14.57;;;5.40;79.30;;;;;;4967557;28;20398;-76
2022/01/14 07:13:30;;;;;;;46.95;15.15;;;5.40;79.40;;;;;;4961885;28;20039;-75
2022/01/14 07:16:02;;;;;;;44.65;13.95;;;5.60;79.60;;;;;;4985156;28;20046;-76
2022/01/14 07:18:29;;;;;;;53.88;15.38;;;5.40;79.50;;;;;;4956590;28;20664;-76
2022/01/14 07:20:56;;;;;;;41.45;15.40;;;5.40;79.60;;;;;;4978094;28;20043;-76
2022/01/14 07:23:23;;;;;;;54.65;15.20;;;5.40;79.70;;;;;;4974967;28;20051;-75
2022/01/14 07:25:50;;;;;;;55.40;16.38;;;5.40;79.70;;;;;;4974900;28;20052;-76
2022/01/14 07:28:16;;;;;;;59.75;16.88;;;5.40;79.80;;;;;;4962047;28;20043;-77
2022/01/14 07:30:43;;;;;;;51.70;16.27;;;5.50;80.00;;;;;;4973795;28;20058;-76
2022/01/14 07:33:10;;;;;;;58.13;17.50;;;5.50;80.00;;;;;;4989277;28;20049;-76
2022/01/14 07:35:39;;;;;;;49.17;17.80;;;5.50;80.00;;;;;;4966027;28;20106;-77
2022/01/14 07:38:06;;;;;;;50.33;16.42;;;5.50;80.10;;;;;;4996166;28;20042;-76
2022/01/14 07:40:33;;;;;;;51.67;15.93;;;5.50;80.10;;;;;;4972021;28;20047;-76
2022/01/14 07:43:00;;;;;;;57.83;18.50;;;5.50;80.30;;;;;;4972977;28;20058;-76
2022/01/14 07:45:27;;;;;;;47.95;17.13;;;5.60;80.30;;;;;;4983071;28;20042;-76
2022/01/14 07:47:54;;;;;;;45.08;16.38;;;5.60;80.40;;;;;;4987880;28;20051;-76
2022/01/14 07:50:26;;;;;;;49.65;17.75;;;5.60;80.30;;;;;;4952415;28;20088;-76
2022/01/14 07:52:53;;;;;;;48.35;16.73;;;5.60;80.40;;;;;;4980884;28;20042;-76
2022/01/14 07:55:19;;;;;;;35.47;16.48;;;5.60;80.40;;;;;;4967758;28;20133;-76
2022/01/14 07:57:46;;;;;;;43.92;17.80;;;5.70;80.90;;;;;;4963379;28;20038;-77
2022/01/14 08:00:13;;;;;;;57.92;18.83;;;5.70;80.20;;;;;;4967381;28;20057;-76
2022/01/14 08:02:40;;;;;;;49.45;18.70;;;5.70;80.30;;;;;;5004059;28;20038;-76
2022/01/14 08:05:08;;;;;;;39.92;18.17;;;5.70;80.40;;;;;;4982489;28;20483;-76
2022/01/14 08:07:44;;;;;;;57.42;18.55;;;5.80;80.40;;;;;;4973866;28;20046;-76
2022/01/14 08:10:11;;;;;;;46.17;19.75;;;5.80;80.50;;;;;;4984341;28;20500;-78
2022/01/14 08:12:38;;;;;;;57.35;19.17;;;5.80;80.50;;;;;;5007528;28;20046;-76
2022/01/14 08:15:06;;;;;;;43.97;18.98;;;5.80;80.50;;;;;;4967785;28;20787;-76
2022/01/14 08:17:33;;;;;;;52.42;19.73;;;5.80;80.60;;;;;;4981589;28;20067;-76
2022/01/14 08:19:59;;;;;;;46.58;19.67;;;5.90;80.70;;;;;;4982231;28;20035;-76
2022/01/14 08:22:28;;;;;;;51.25;19.27;;;5.90;80.70;;;;;;4978936;28;20053;-76
2022/01/14 08:24:55;;;;;;;60.05;21.23;;;5.90;80.80;;;;;;4982824;28;20046;-76
2022/01/14 08:27:22;;;;;;;62.47;18.83;;;6.00;80.80;;;;;;4969748;28;20043;-76
2022/01/14 08:29:50;;;;;;;54.10;21.75;;;6.00;80.70;;;;;;4984214;28;20050;-76
2022/01/14 08:32:17;;;;;;;69.70;22.17;;;6.00;80.60;;;;;;4982897;28;20391;-77
2022/01/14 08:34:44;;;;;;;67.93;21.13;;;6.00;80.60;;;;;;4965916;28;20042;-76
2022/01/14 08:37:10;;;;;;;53.15;22.10;;;6.10;80.50;;;;;;4967285;28;20039;-76
2022/01/14 08:39:39;;;;;;;57.55;21.15;;;6.20;80.50;;;;;;4968654;28;20039;-76
2022/01/14 08:42:10;;;;;;;58.33;23.98;;;6.10;80.50;;;;;;4960941;28;20038;-76
2022/01/14 08:44:37;;;;;;;45.72;22.17;;;6.10;80.70;;;;;;4967602;28;20126;-76
2022/01/14 08:47:10;;;;;;;44.55;22.20;;;6.20;80.70;;;;;;4977210;28;20478;-76
2022/01/14 08:49:39;;;;;;;52.90;23.00;;;6.20;80.70;;;;;;4970894;28;20055;-77
2022/01/14 08:52:07;;;;;;;41.85;22.98;;;6.20;80.60;;;;;;4950978;28;20560;-76
2022/01/14 08:54:34;;;;;;;48.17;23.02;;;6.30;80.70;;;;;;4972730;28;20051;-76
2022/01/14 08:57:03;;;;;;;36.72;23.15;;;6.30;80.70;;;;;;4968671;28;20045;-76
2022/01/14 08:59:31;;;;;;;42.45;23.00;;;6.30;80.70;;;;;;4960632;28;20422;-76
2022/01/14 09:01:58;;;;;;;46.63;22.23;;;6.30;81.00;;;;;;5012577;22;20524;-50
2022/01/14 09:04:25;;;;;;;40.25;23.13;;;6.40;81.10;;;;;;5022149;28;20049;-52
2022/01/14 09:06:53;;;;;;;44.05;23.55;;;6.40;81.10;;;;;;4999877;28;20107;-45
2022/01/14 09:09:22;;;;;;;53.70;21.35;;;6.50;81.00;;;;;;5005988;28;20045;-47
2022/01/14 09:11:49;;;;;;;59.83;21.52;;;6.50;80.80;;;;;;5001106;28;20429;-45
2022/01/14 09:14:16;;;;;;;45.30;21.00;;;6.60;80.50;;;;;;5003651;28;20038;-46
2022/01/14 09:16:42;;;;;;;56.97;22.15;;;6.60;80.90;;;;;;5005836;28;20506;-49
2022/01/14 09:19:09;;;;;;;41.20;20.92;;;6.60;80.00;;;;;;5003494;28;20088;-47
2022/01/14 09:21:36;;;;;;;43.35;22.10;;;6.60;79.90;;;;;;5010689;28;20034;-48
2022/01/14 09:24:03;;;;;;;50.45;21.77;;;6.70;80.00;;;;;;5008259;28;20042;-46
2022/01/14 09:26:35;;;;;;;50.80;21.27;;;6.70;79.90;;;;;;4998559;28;20684;-47
2022/01/14 09:29:03;;;;;;;41.10;20.00;;;6.70;79.90;;;;;;5006480;28;20049;-46
2022/01/14 09:31:30;;;;;;;44.53;21.80;;;6.70;79.90;;;;;;5002355;28;20058;-48
2022/01/14 09:33:58;;;;;;;44.35;21.73;;;6.70;80.10;;;;;;5004790;28;20097;-47
2022/01/14 09:36:25;;;;;;;46.30;23.05;;;6.70;80.20;;;;;;5001061;28;20453;-46
2022/01/14 09:38:51;;;;;;;51.78;23.77;;;6.70;80.10;;;;;;5007999;28;20058;-48
2022/01/14 09:41:19;;;;;;;48.75;22.17;;;6.70;79.90;;;;;;5004764;28;20516;-47
2022/01/14 09:43:45;;;;;;;50.72;22.17;;;6.80;80.00;;;;;;5002525;28;20112;-46
2022/01/14 09:46:13;;;;;;;45.55;22.48;;;6.80;80.00;;;;;;5003220;28;20045;-47
2022/01/14 09:48:43;;;;;;;48.75;21.88;;;6.80;80.00;;;;;;5008788;28;20042;-47
2022/01/14 09:51:10;;;;;;;55.42;24.10;;;6.80;80.20;;;;;;4995286;28;20109;-46
2022/01/14 09:53:36;;;;;;;41.65;22.58;;;6.80;80.40;;;;;;4998370;28;20109;-46
2022/01/14 09:56:04;;;;;;;46.60;23.98;;;6.80;80.70;;;;;;5001652;28;20055;-45
2022/01/14 09:58:37;;;;;;;42.90;24.73;;;6.90;80.70;;;;;;5010631;28;20042;-47
2022/01/14 10:01:13;;;;;;;53.63;25.83;;;6.90;80.70;;;;;;5002213;28;20382;-46
2022/01/14 10:03:51;;;;;;;59.03;26.55;;;7.00;80.70;;;;;;4998246;28;20406;-46
2022/01/14 10:06:37;;;;;;;55.75;25.40;;;7.10;80.60;;;;;;4986908;28;20442;-46
2022/01/14 10:09:16;;;;;;;50.15;26.27;;;7.20;80.50;;;;;;5006013;28;20050;-48
2022/01/14 10:11:57;;;;;;;45.13;26.95;;;7.20;80.50;;;;;;5004021;28;20053;-45
2022/01/14 10:14:24;;;;;;;62.05;29.60;;;7.30;80.40;;;;;;4993839;28;20510;-47
2022/01/14 10:16:56;;;;;;;69.65;35.28;;;7.30;80.10;;;;;;5008322;28;20054;-46
2022/01/14 10:19:33;;;;;;;67.65;35.35;;;7.40;79.80;;;;;;5004571;28;20053;-47
2022/01/14 10:22:01;;;;;;;81.45;38.03;;;7.40;79.80;;;;;;5002568;28;20038;-47
2022/01/14 10:24:32;;;;;;;60.88;33.30;;;7.40;79.60;;;;;;4992452;28;20039;-46
2022/01/14 10:27:02;;;;;;;70.00;36.35;;;7.40;79.60;;;;;;4988015;28;20438;-47
2022/01/14 10:29:39;;;;;;;66.60;34.70;;;7.40;79.50;;;;;;4999459;28;20460;-45
2022/01/14 10:32:08;;;;;;;45.63;27.25;;;7.50;79.60;;;;;;5001772;28;20045;-46
2022/01/14 10:34:35;;;;;;;50.95;25.08;;;7.50;79.50;;;;;;4998103;28;20045;-49
2022/01/14 10:37:11;;;;;;;48.45;25.33;;;7.50;79.50;;;;;;4970538;28;20046;-46
2022/01/14 10:39:49;;;;;;;50.42;22.85;;;7.50;79.40;;;;;;4992114;28;20065;-46
2022/01/14 10:42:42;;;;;;;57.13;24.90;;;7.60;79.40;;;;;;4996967;28;20161;-47
2022/01/14 10:45:22;;;;;;;;;;;7.60;79.20;;;;;;4980185;28;20058;-46
2022/01/14 10:48:01;;;;;;;43.10;20.45;;;7.60;79.30;;;;;;4969382;28;19922;-48
2022/01/14 10:50:38;;;;;;;42.10;21.30;;;7.70;79.40;;;;;;4989835;28;20046;-48
2022/01/14 10:53:42;;;;;;;51.00;22.45;;;7.70;79.50;;;;;;4967959;28;20043;-51
2022/01/14 10:56:12;;;;;;;42.67;20.75;;;7.70;79.50;;;;;;4940929;29;20608;-50
2022/01/14 10:58:45;;;;;;;49.95;22.90;;;7.80;79.60;;;;;;4950019;28;20031;-47
2022/01/14 11:01:20;;;;;;;39.25;22.30;;;7.90;79.50;;;;;;4964504;28;20062;-49
2022/01/14 11:04:00;;;;;;;40.50;22.60;;;7.90;79.30;;;;;;4970921;28;20164;-50
2022/01/14 11:06:29;;;;;;;41.72;21.48;;;8.00;79.30;;;;;;4946758;28;20508;-47
2022/01/14 11:09:00;;;;;;;38.40;21.70;;;8.00;79.10;;;;;;4969419;28;20411;-48
2022/01/14 11:11:29;;;;;;;35.85;19.98;;;8.10;79.00;;;;;;4970946;28;20051;-46
2022/01/14 11:13:56;;;;;;;58.85;23.63;;;8.10;78.90;;;;;;4957142;28;20057;-49
2022/01/14 11:16:24;;;;;;;32.72;21.83;;;8.10;78.70;;;;;;4956855;28;20418;-46
2022/01/14 11:18:51;;;;;;;52.05;22.85;;;8.20;78.70;;;;;;4976518;28;20078;-51
2022/01/14 11:24:05;;;;;;;47.78;23.08;;;8.20;78.40;;;;;;4957988;28;21428;-49
2022/01/14 11:26:37;;;;;;;59.30;24.60;;;8.20;78.90;;;;;;4958586;28;20582;-46
2022/01/14 11:29:17;;;;;;;39.65;23.10;;;8.20;78.30;;;;;;4975672;28;20101;-44
2022/01/14 11:31:44;;;;;;;45.50;23.35;;;8.20;78.20;;;;;;4957737;28;20047;-48
2022/01/14 11:34:42;;;;;;;50.05;23.17;;;8.20;78.20;;;;;;4956377;28;20135;-48
2022/01/14 11:37:16;;;;;;;59.55;24.30;;;8.30;78.20;;;;;;4975649;28;20602;-47
2022/01/14 11:39:57;;;;;;;49.60;23.70;;;8.20;78.10;;;;;;4965891;28;20562;-47
2022/01/14 11:42:43;;;;;;;42.45;22.15;;;8.30;78.10;;;;;;4955305;28;20099;-50
2022/01/14 11:45:15;;;;;;;47.70;21.55;;;8.30;78.20;;;;;;4961115;28;20457;-49
2022/01/14 11:47:44;;;;;;;54.83;21.55;;;8.30;78.20;;;;;;4962439;28;20117;-46
2022/01/14 11:50:23;;;;;;;50.03;22.45;;;8.20;78.20;;;;;;4957024;28;20039;-47
2022/01/14 11:52:51;;;;;;;41.40;23.33;;;8.30;78.30;;;;;;4953309;28;20106;-48
2022/01/14 11:55:23;;;;;;;52.38;21.38;;;8.30;78.50;;;;;;4957722;28;20051;-49
2022/01/14 11:58:03;;;;;;;41.13;21.52;;;8.30;78.40;;;;;;4958617;28;20451;-49
2022/01/14 12:03:13;;;;;;;47.03;22.80;;;8.30;78.50;;;;;;4955501;28;20518;-45
2022/01/14 12:06:07;;;;;;;46.00;21.83;;;8.30;78.50;;;;;;4954675;28;20047;-47
2022/01/14 12:08:35;;;;;;;44.83;23.85;;;8.40;78.50;;;;;;4961141;28;20062;-52
2022/01/14 12:11:05;;;;;;;41.70;23.65;;;8.40;78.60;;;;;;4955265;28;20047;-48
2022/01/14 12:13:41;;;;;;;39.45;21.00;;;8.40;78.70;;;;;;4974545;28;20634;-47
2022/01/14 12:16:35;;;;;;;43.80;22.98;;;8.40;78.60;;;;;;4959622;28;20039;-48
2022/01/14 12:19:02;;;;;;;36.75;21.83;;;8.40;78.50;;;;;;4956543;29;20051;-49
2022/01/14 12:21:44;;;;;;;59.85;24.52;;;8.50;78.50;;;;;;4952461;28;20047;-44
2022/01/14 12:24:21;;;;;;;45.53;24.45;;;8.50;78.50;;;;;;4955259;28;20043;-47
2022/01/14 12:27:21;;;;;;;51.97;23.17;;;8.50;78.50;;;;;;4953729;28;20051;-49
2022/01/14 12:29:47;;;;;;;39.45;24.25;;;8.50;78.40;;;;;;4951076;29;20830;-49
2022/01/14 12:32:20;;;;;;;40.53;21.85;;;8.50;78.50;;;;;;4953993;28;20491;-47
2022/01/14 12:34:56;;;;;;;37.22;21.63;;;8.60;78.50;;;;;;4953285;28;20040;-50
2022/01/14 12:37:28;;;;;;;38.67;20.95;;;8.60;78.40;;;;;;4954142;28;20047;-45
2022/01/14 12:40:03;;;;;;;39.35;22.92;;;8.70;78.50;;;;;;4955215;28;20065;-48
2022/01/14 12:42:30;;;;;;;38.65;21.98;;;8.60;78.50;;;;;;4952079;28;20507;-49
2022/01/14 12:44:58;;;;;;;39.35;23.08;;;8.70;78.50;;;;;;4952789;28;20031;-45
2022/01/14 12:47:31;;;;;;;46.63;22.98;;;8.70;78.50;;;;;;4953781;28;20074;-50
2022/01/14 12:50:03;;;;;;;36.53;22.10;;;8.70;78.50;;;;;;4948741;28;20079;-49
2022/01/14 12:52:40;;;;;;;37.97;20.33;;;8.80;78.60;;;;;;4941127;29;20508;-48
2022/01/14 12:55:09;;;;;;;41.10;22.88;;;8.80;78.50;;;;;;4952827;28;20094;-50
2022/01/14 12:57:36;;;;;;;36.20;20.73;;;8.80;78.20;;;;;;4944616;28;20106;-48
2022/01/14 13:00:09;;;;;;;44.08;24.02;;;8.80;78.00;;;;;;4954137;28;20052;-47
2022/01/14 13:02:36;;;;;;;37.80;22.98;;;8.80;77.80;;;;;;4972975;28;20050;-48
2022/01/14 13:05:19;;;;;;;44.53;23.55;;;8.80;77.70;;;;;;4966770;28;20043;-46
2022/01/14 13:07:47;;;;;;;40.95;22.92;;;8.80;77.60;;;;;;4970071;28;20043;-45
2022/01/14 13:10:16;;;;;;;42.65;23.33;;;8.80;77.60;;;;;;4971394;28;20031;-50
2022/01/14 13:12:45;;;;;;;42.90;24.70;;;8.80;77.60;;;;;;4958443;28;20055;-48
2022/01/14 13:15:20;;;;;;;43.65;24.63;;;8.80;77.60;;;;;;4953319;28;20035;-49
2022/01/14 13:18:03;;;;;;;40.80;23.58;;;8.80;77.70;;;;;;4951073;28;20035;-47